sensor_id;sensor_type;location;lat;lon;timestamp;P1;durP1;ratioP1;P2;durP2;ratioP2
8415;SDS011;4245;42.120;24.732;2023-07-22T00:01:32;10.27;;;5.30;;
8415;SDS011;4245;42.120;24.732;2023-07-22T00:03:59;7.90;;;5.00;;
8415;SDS011;4245;42.120;24.732;2023-07-22T00:06:26;11.82;;;4.72;;
8415;SDS011;4245;42.120;24.732;2023-07-22T00:08:53;7.85;;;5.45;;
8415;SDS011;4245;42.120;24.732;2023-07-22T00:11:21;8.95;;;5.25;;
8415;SDS011;4245;42.120;24.732;2023-07-22T00:13:48;8.23;;;5.50;;
8415;SDS011;4245;42.120;24.732;2023-07-22T00:16:15;9.15;;;5.22;;
8415;SDS011;4245;42.120;24.732;2023-07-22T00:18:42;6.90;;;5.25;;
8415;SDS011;4245;42.120;24.732;2023-07-22T00:21:11;9.10;;;5.35;;
8415;SDS011;4245;42.120;24.732;2023-07-22T00:23:37;13.57;;;5.87;;
8415;SDS011;4245;42.120;24.732;2023-07-22T00:26:04;8.32;;;5.45;;
8415;SDS011;4245;42.120;24.732;2023-07-22T00:28:32;10.15;;;5.78;;
8415;SDS011;4245;42.120;24.732;2023-07-22T00:31:01;7.53;;;5.28;;
8415;SDS011;4245;42.120;24.732;2023-07-22T00:33:29;8.40;;;5.15;;
8415;SDS011;4245;42.120;24.732;2023-07-22T00:35:56;9.05;;;5.88;;
8415;SDS011;4245;42.120;24.732;2023-07-22T00:38:23;8.43;;;5.18;;
8415;SDS011;4245;42.120;24.732;2023-07-22T00:40:49;6.20;;;5.60;;
8415;SDS011;4245;42.120;24.732;2023-07-22T00:43:16;9.13;;;5.60;;
8415;SDS011;4245;42.120;24.732;2023-07-22T00:45:44;11.90;;;5.57;;
8415;SDS011;4245;42.120;24.732;2023-07-22T00:48:11;8.65;;;5.47;;
8415;SDS011;4245;42.120;24.732;2023-07-22T00:50:41;6.50;;;5.32;;
8415;SDS011;4245;42.120;24.732;2023-07-22T00:53:08;9.68;;;5.88;;
8415;SDS011;4245;42.120;24.732;2023-07-22T00:55:35;6.07;;;5.47;;
8415;SDS011;4245;42.120;24.732;2023-07-22T00:58:05;9.25;;;5.43;;
8415;SDS011;4245;42.120;24.732;2023-07-22T01:00:33;7.25;;;5.28;;
8415;SDS011;4245;42.120;24.732;2023-07-22T01:03:01;6.75;;;5.47;;
8415;SDS011;4245;42.120;24.732;2023-07-22T01:05:28;9.52;;;5.35;;
8415;SDS011;4245;42.120;24.732;2023-07-22T01:07:56;11.35;;;5.75;;
8415;SDS011;4245;42.120;24.732;2023-07-22T01:10:23;7.60;;;5.20;;
8415;SDS011;4245;42.120;24.732;2023-07-22T01:12:50;5.97;;;4.80;;
8415;SDS011;4245;42.120;24.732;2023-07-22T01:15:17;9.15;;;5.80;;
8415;SDS011;4245;42.120;24.732;2023-07-22T01:17:44;7.73;;;5.53;;
8415;SDS011;4245;42.120;24.732;2023-07-22T01:20:12;8.90;;;5.30;;
8415;SDS011;4245;42.120;24.732;2023-07-22T01:22:48;10.82;;;5.40;;
8415;SDS011;4245;42.120;24.732;2023-07-22T01:25:17;8.93;;;5.70;;
8415;SDS011;4245;42.120;24.732;2023-07-22T01:27:46;9.53;;;5.73;;
8415;SDS011;4245;42.120;24.732;2023-07-22T01:30:14;9.03;;;5.50;;
8415;SDS011;4245;42.120;24.732;2023-07-22T01:32:41;8.40;;;5.67;;
8415;SDS011;4245;42.120;24.732;2023-07-22T01:35:08;7.63;;;5.07;;
8415;SDS011;4245;42.120;24.732;2023-07-22T01:37:35;7.53;;;5.67;;
8415;SDS011;4245;42.120;24.732;2023-07-22T01:40:03;9.63;;;5.60;;
8415;SDS011;4245;42.120;24.732;2023-07-22T01:42:36;7.90;;;5.50;;
8415;SDS011;4245;42.120;24.732;2023-07-22T01:45:04;10.00;;;6.05;;
8415;SDS011;4245;42.120;24.732;2023-07-22T01:47:32;9.02;;;5.38;;
8415;SDS011;4245;42.120;24.732;2023-07-22T01:49:59;8.30;;;5.87;;
8415;SDS011;4245;42.120;24.732;2023-07-22T01:52:26;8.87;;;5.83;;
8415;SDS011;4245;42.120;24.732;2023-07-22T01:54:53;7.70;;;5.87;;
8415;SDS011;4245;42.120;24.732;2023-07-22T01:57:21;8.87;;;5.30;;
8415;SDS011;4245;42.120;24.732;2023-07-22T01:59:48;9.80;;;6.50;;
8415;SDS011;4245;42.120;24.732;2023-07-22T02:02:14;9.40;;;5.90;;
8415;SDS011;4245;42.120;24.732;2023-07-22T02:04:41;7.18;;;5.57;;
8415;SDS011;4245;42.120;24.732;2023-07-22T02:07:08;10.77;;;6.07;;
8415;SDS011;4245;42.120;24.732;2023-07-22T02:09:35;7.10;;;6.03;;
8415;SDS011;4245;42.120;24.732;2023-07-22T02:12:02;9.48;;;5.82;;
8415;SDS011;4245;42.120;24.732;2023-07-22T02:14:30;11.83;;;5.47;;
8415;SDS011;4245;42.120;24.732;2023-07-22T02:16:57;8.10;;;6.50;;
8415;SDS011;4245;42.120;24.732;2023-07-22T02:19:24;8.85;;;6.35;;
8415;SDS011;4245;42.120;24.732;2023-07-22T02:21:51;10.77;;;7.43;;
8415;SDS011;4245;42.120;24.732;2023-07-22T02:24:18;10.35;;;7.05;;
8415;SDS011;4245;42.120;24.732;2023-07-22T02:26:44;12.53;;;7.17;;
8415;SDS011;4245;42.120;24.732;2023-07-22T02:29:11;7.80;;;6.47;;
8415;SDS011;4245;42.120;24.732;2023-07-22T02:31:39;9.07;;;6.60;;
8415;SDS011;4245;42.120;24.732;2023-07-22T02:34:06;9.63;;;6.73;;
8415;SDS011;4245;42.120;24.732;2023-07-22T02:36:33;7.97;;;6.47;;
8415;SDS011;4245;42.120;24.732;2023-07-22T02:39:00;12.57;;;7.03;;
8415;SDS011;4245;42.120;24.732;2023-07-22T02:41:26;12.30;;;6.67;;
8415;SDS011;4245;42.120;24.732;2023-07-22T02:43:53;12.53;;;7.07;;
8415;SDS011;4245;42.120;24.732;2023-07-22T02:46:20;11.07;;;6.80;;
8415;SDS011;4245;42.120;24.732;2023-07-22T02:48:48;9.40;;;6.90;;
8415;SDS011;4245;42.120;24.732;2023-07-22T02:51:15;10.60;;;7.00;;
8415;SDS011;4245;42.120;24.732;2023-07-22T02:53:42;11.03;;;7.00;;
8415;SDS011;4245;42.120;24.732;2023-07-22T02:56:09;10.13;;;6.83;;
8415;SDS011;4245;42.120;24.732;2023-07-22T02:58:36;9.67;;;6.57;;
8415;SDS011;4245;42.120;24.732;2023-07-22T03:01:03;9.50;;;7.33;;
8415;SDS011;4245;42.120;24.732;2023-07-22T03:03:32;10.90;;;7.37;;
8415;SDS011;4245;42.120;24.732;2023-07-22T03:06:00;11.97;;;7.13;;
8415;SDS011;4245;42.120;24.732;2023-07-22T03:08:28;9.33;;;7.10;;
8415;SDS011;4245;42.120;24.732;2023-07-22T03:10:55;10.87;;;6.97;;
8415;SDS011;4245;42.120;24.732;2023-07-22T03:13:22;8.53;;;7.23;;
8415;SDS011;4245;42.120;24.732;2023-07-22T03:15:49;13.37;;;8.43;;
8415;SDS011;4245;42.120;24.732;2023-07-22T03:18:15;13.47;;;8.10;;
8415;SDS011;4245;42.120;24.732;2023-07-22T03:20:42;15.23;;;7.93;;
8415;SDS011;4245;42.120;24.732;2023-07-22T03:23:10;12.50;;;8.70;;
8415;SDS011;4245;42.120;24.732;2023-07-22T03:25:37;10.17;;;7.63;;
8415;SDS011;4245;42.120;24.732;2023-07-22T03:28:04;13.40;;;7.73;;
8415;SDS011;4245;42.120;24.732;2023-07-22T03:30:32;17.30;;;7.60;;
8415;SDS011;4245;42.120;24.732;2023-07-22T03:32:59;10.30;;;7.90;;
8415;SDS011;4245;42.120;24.732;2023-07-22T03:35:26;13.13;;;7.67;;
8415;SDS011;4245;42.120;24.732;2023-07-22T03:37:53;14.83;;;7.97;;
8415;SDS011;4245;42.120;24.732;2023-07-22T03:40:21;10.93;;;7.60;;
8415;SDS011;4245;42.120;24.732;2023-07-22T03:42:52;11.87;;;7.53;;
8415;SDS011;4245;42.120;24.732;2023-07-22T03:45:20;10.57;;;7.80;;
8415;SDS011;4245;42.120;24.732;2023-07-22T03:47:49;10.33;;;7.37;;
8415;SDS011;4245;42.120;24.732;2023-07-22T03:50:16;9.90;;;7.40;;
8415;SDS011;4245;42.120;24.732;2023-07-22T03:52:43;10.23;;;7.50;;
8415;SDS011;4245;42.120;24.732;2023-07-22T03:55:10;11.63;;;7.60;;
8415;SDS011;4245;42.120;24.732;2023-07-22T03:57:38;13.18;;;7.65;;
8415;SDS011;4245;42.120;24.732;2023-07-22T04:00:06;13.37;;;7.50;;
8415;SDS011;4245;42.120;24.732;2023-07-22T04:02:35;10.53;;;6.87;;
8415;SDS011;4245;42.120;24.732;2023-07-22T04:05:02;10.40;;;7.33;;
8415;SDS011;4245;42.120;24.732;2023-07-22T04:07:29;11.50;;;7.50;;
8415;SDS011;4245;42.120;24.732;2023-07-22T04:09:56;12.50;;;8.00;;
8415;SDS011;4245;42.120;24.732;2023-07-22T04:12:23;12.45;;;7.38;;
8415;SDS011;4245;42.120;24.732;2023-07-22T04:14:51;17.23;;;9.30;;
8415;SDS011;4245;42.120;24.732;2023-07-22T04:17:18;12.13;;;8.05;;
8415;SDS011;4245;42.120;24.732;2023-07-22T04:19:44;12.07;;;7.27;;
8415;SDS011;4245;42.120;24.732;2023-07-22T04:22:11;12.93;;;7.88;;
8415;SDS011;4245;42.120;24.732;2023-07-22T04:24:38;10.95;;;7.47;;
8415;SDS011;4245;42.120;24.732;2023-07-22T04:27:05;11.35;;;7.60;;
8415;SDS011;4245;42.120;24.732;2023-07-22T04:29:32;11.13;;;7.43;;
8415;SDS011;4245;42.120;24.732;2023-07-22T04:32:01;10.80;;;8.23;;
8415;SDS011;4245;42.120;24.732;2023-07-22T04:34:29;11.00;;;7.47;;
8415;SDS011;4245;42.120;24.732;2023-07-22T04:36:56;16.25;;;8.70;;
8415;SDS011;4245;42.120;24.732;2023-07-22T04:39:22;13.45;;;8.98;;
8415;SDS011;4245;42.120;24.732;2023-07-22T04:41:49;19.80;;;9.32;;
8415;SDS011;4245;42.120;24.732;2023-07-22T04:44:16;15.50;;;8.65;;
8415;SDS011;4245;42.120;24.732;2023-07-22T04:46:44;16.75;;;8.75;;
8415;SDS011;4245;42.120;24.732;2023-07-22T04:49:12;20.30;;;10.93;;
8415;SDS011;4245;42.120;24.732;2023-07-22T04:51:42;21.88;;;13.38;;
8415;SDS011;4245;42.120;24.732;2023-07-22T04:54:09;43.70;;;25.65;;
8415;SDS011;4245;42.120;24.732;2023-07-22T04:56:36;43.85;;;24.25;;
8415;SDS011;4245;42.120;24.732;2023-07-22T04:59:04;27.98;;;16.70;;
8415;SDS011;4245;42.120;24.732;2023-07-22T05:01:30;22.65;;;12.57;;
8415;SDS011;4245;42.120;24.732;2023-07-22T05:03:57;13.07;;;9.10;;
8415;SDS011;4245;42.120;24.732;2023-07-22T05:06:28;13.07;;;9.23;;
8415;SDS011;4245;42.120;24.732;2023-07-22T05:08:55;18.75;;;9.52;;
8415;SDS011;4245;42.120;24.732;2023-07-22T05:11:21;16.58;;;8.73;;
8415;SDS011;4245;42.120;24.732;2023-07-22T05:13:48;12.35;;;8.82;;
8415;SDS011;4245;42.120;24.732;2023-07-22T05:16:15;12.02;;;8.25;;
8415;SDS011;4245;42.120;24.732;2023-07-22T05:18:42;13.48;;;8.82;;
8415;SDS011;4245;42.120;24.732;2023-07-22T05:21:09;16.23;;;8.27;;
8415;SDS011;4245;42.120;24.732;2023-07-22T05:23:38;13.07;;;8.38;;
8415;SDS011;4245;42.120;24.732;2023-07-22T05:26:05;12.73;;;8.25;;
8415;SDS011;4245;42.120;24.732;2023-07-22T05:28:32;9.95;;;8.30;;
8415;SDS011;4245;42.120;24.732;2023-07-22T05:30:59;11.65;;;8.48;;
8415;SDS011;4245;42.120;24.732;2023-07-22T05:33:26;10.52;;;8.15;;
8415;SDS011;4245;42.120;24.732;2023-07-22T05:35:53;18.05;;;11.10;;
8415;SDS011;4245;42.120;24.732;2023-07-22T05:38:19;15.82;;;8.07;;
8415;SDS011;4245;42.120;24.732;2023-07-22T05:40:48;29.27;;;24.58;;
8415;SDS011;4245;42.120;24.732;2023-07-22T05:43:15;18.55;;;16.17;;
8415;SDS011;4245;42.120;24.732;2023-07-22T05:45:41;14.25;;;10.55;;
8415;SDS011;4245;42.120;24.732;2023-07-22T05:48:08;14.43;;;9.02;;
8415;SDS011;4245;42.120;24.732;2023-07-22T05:50:35;14.73;;;9.60;;
8415;SDS011;4245;42.120;24.732;2023-07-22T05:53:02;11.15;;;9.15;;
8415;SDS011;4245;42.120;24.732;2023-07-22T05:55:28;9.98;;;8.93;;
8415;SDS011;4245;42.120;24.732;2023-07-22T05:57:57;13.88;;;8.60;;
8415;SDS011;4245;42.120;24.732;2023-07-22T06:00:25;11.80;;;8.57;;
8415;SDS011;4245;42.120;24.732;2023-07-22T06:02:51;9.63;;;7.30;;
8415;SDS011;4245;42.120;24.732;2023-07-22T06:05:18;13.05;;;8.80;;
8415;SDS011;4245;42.120;24.732;2023-07-22T06:07:45;14.35;;;8.25;;
8415;SDS011;4245;42.120;24.732;2023-07-22T06:10:12;12.77;;;8.45;;
8415;SDS011;4245;42.120;24.732;2023-07-22T06:12:38;17.90;;;13.00;;
8415;SDS011;4245;42.120;24.732;2023-07-22T06:15:08;19.52;;;13.68;;
8415;SDS011;4245;42.120;24.732;2023-07-22T06:17:35;17.73;;;10.90;;
8415;SDS011;4245;42.120;24.732;2023-07-22T06:20:03;10.48;;;8.43;;
8415;SDS011;4245;42.120;24.732;2023-07-22T06:22:30;13.25;;;8.68;;
8415;SDS011;4245;42.120;24.732;2023-07-22T06:24:57;11.65;;;8.95;;
8415;SDS011;4245;42.120;24.732;2023-07-22T06:27:24;14.73;;;8.63;;
8415;SDS011;4245;42.120;24.732;2023-07-22T06:29:50;15.07;;;9.10;;
8415;SDS011;4245;42.120;24.732;2023-07-22T06:32:19;15.00;;;9.00;;
8415;SDS011;4245;42.120;24.732;2023-07-22T06:34:45;13.73;;;8.65;;
8415;SDS011;4245;42.120;24.732;2023-07-22T06:37:19;13.90;;;9.52;;
8415;SDS011;4245;42.120;24.732;2023-07-22T06:39:46;12.05;;;10.20;;
8415;SDS011;4245;42.120;24.732;2023-07-22T06:42:12;15.38;;;9.27;;
8415;SDS011;4245;42.120;24.732;2023-07-22T06:47:15;9.75;;;8.02;;
8415;SDS011;4245;42.120;24.732;2023-07-22T06:49:43;14.45;;;10.55;;
8415;SDS011;4245;42.120;24.732;2023-07-22T06:52:10;13.82;;;8.75;;
8415;SDS011;4245;42.120;24.732;2023-07-22T06:54:37;14.05;;;8.75;;
8415;SDS011;4245;42.120;24.732;2023-07-22T06:57:03;20.48;;;9.63;;
8415;SDS011;4245;42.120;24.732;2023-07-22T06:59:31;14.15;;;8.65;;
8415;SDS011;4245;42.120;24.732;2023-07-22T07:01:58;16.23;;;10.13;;
8415;SDS011;4245;42.120;24.732;2023-07-22T07:04:25;14.65;;;10.02;;
8415;SDS011;4245;42.120;24.732;2023-07-22T07:06:53;15.77;;;8.75;;
8415;SDS011;4245;42.120;24.732;2023-07-22T07:09:20;16.55;;;8.43;;
8415;SDS011;4245;42.120;24.732;2023-07-22T07:11:47;11.63;;;8.25;;
8415;SDS011;4245;42.120;24.732;2023-07-22T07:14:14;16.67;;;8.88;;
8415;SDS011;4245;42.120;24.732;2023-07-22T07:16:40;19.65;;;10.70;;
8415;SDS011;4245;42.120;24.732;2023-07-22T07:19:07;11.40;;;9.60;;
8415;SDS011;4245;42.120;24.732;2023-07-22T07:21:34;15.70;;;8.75;;
8415;SDS011;4245;42.120;24.732;2023-07-22T07:24:02;12.73;;;8.60;;
8415;SDS011;4245;42.120;24.732;2023-07-22T07:26:29;12.93;;;8.55;;
8415;SDS011;4245;42.120;24.732;2023-07-22T07:28:56;14.30;;;9.02;;
8415;SDS011;4245;42.120;24.732;2023-07-22T07:31:23;16.40;;;12.95;;
8415;SDS011;4245;42.120;24.732;2023-07-22T07:33:50;12.63;;;10.32;;
8415;SDS011;4245;42.120;24.732;2023-07-22T07:36:17;12.98;;;9.15;;
8415;SDS011;4245;42.120;24.732;2023-07-22T07:38:43;12.60;;;11.02;;
8415;SDS011;4245;42.120;24.732;2023-07-22T07:41:12;13.40;;;8.63;;
8415;SDS011;4245;42.120;24.732;2023-07-22T07:43:39;11.73;;;8.57;;
8415;SDS011;4245;42.120;24.732;2023-07-22T07:46:13;12.23;;;9.07;;
8415;SDS011;4245;42.120;24.732;2023-07-22T07:48:45;16.48;;;10.73;;
8415;SDS011;4245;42.120;24.732;2023-07-22T07:51:13;14.85;;;8.73;;
8415;SDS011;4245;42.120;24.732;2023-07-22T07:53:40;12.65;;;8.18;;
8415;SDS011;4245;42.120;24.732;2023-07-22T07:56:08;16.48;;;8.68;;
8415;SDS011;4245;42.120;24.732;2023-07-22T07:58:37;11.35;;;8.18;;
8415;SDS011;4245;42.120;24.732;2023-07-22T08:01:04;10.30;;;8.52;;
8415;SDS011;4245;42.120;24.732;2023-07-22T08:03:32;14.55;;;8.27;;
8415;SDS011;4245;42.120;24.732;2023-07-22T08:06:00;16.13;;;9.07;;
8415;SDS011;4245;42.120;24.732;2023-07-22T08:08:27;10.40;;;8.07;;
8415;SDS011;4245;42.120;24.732;2023-07-22T08:10:57;13.40;;;8.60;;
8415;SDS011;4245;42.120;24.732;2023-07-22T08:13:25;12.52;;;8.43;;
8415;SDS011;4245;42.120;24.732;2023-07-22T08:15:53;12.95;;;8.55;;
8415;SDS011;4245;42.120;24.732;2023-07-22T08:18:20;14.25;;;8.32;;
8415;SDS011;4245;42.120;24.732;2023-07-22T08:20:47;12.85;;;8.40;;
8415;SDS011;4245;42.120;24.732;2023-07-22T08:23:14;14.80;;;8.40;;
8415;SDS011;4245;42.120;24.732;2023-07-22T08:25:40;11.45;;;8.40;;
8415;SDS011;4245;42.120;24.732;2023-07-22T08:28:07;13.77;;;8.05;;
8415;SDS011;4245;42.120;24.732;2023-07-22T08:30:34;12.43;;;7.97;;
8415;SDS011;4245;42.120;24.732;2023-07-22T08:33:02;10.50;;;8.65;;
8415;SDS011;4245;42.120;24.732;2023-07-22T08:35:29;16.00;;;8.25;;
8415;SDS011;4245;42.120;24.732;2023-07-22T08:37:56;11.25;;;7.85;;
8415;SDS011;4245;42.120;24.732;2023-07-22T08:40:23;12.73;;;8.98;;
8415;SDS011;4245;42.120;24.732;2023-07-22T08:42:49;15.50;;;8.27;;
8415;SDS011;4245;42.120;24.732;2023-07-22T08:45:16;9.52;;;8.30;;
8415;SDS011;4245;42.120;24.732;2023-07-22T08:47:46;12.57;;;8.85;;
8415;SDS011;4245;42.120;24.732;2023-07-22T08:50:16;11.10;;;7.82;;
8415;SDS011;4245;42.120;24.732;2023-07-22T08:52:46;14.15;;;8.65;;
8415;SDS011;4245;42.120;24.732;2023-07-22T08:55:14;14.75;;;8.57;;
8415;SDS011;4245;42.120;24.732;2023-07-22T08:57:41;16.05;;;9.05;;
8415;SDS011;4245;42.120;24.732;2023-07-22T09:00:09;18.58;;;8.38;;
8415;SDS011;4245;42.120;24.732;2023-07-22T09:02:37;14.77;;;7.97;;
8415;SDS011;4245;42.120;24.732;2023-07-22T09:05:05;11.07;;;8.80;;
8415;SDS011;4245;42.120;24.732;2023-07-22T09:07:35;11.90;;;8.02;;
8415;SDS011;4245;42.120;24.732;2023-07-22T09:10:03;13.80;;;8.13;;
8415;SDS011;4245;42.120;24.732;2023-07-22T09:12:32;10.98;;;8.35;;
8415;SDS011;4245;42.120;24.732;2023-07-22T09:15:05;13.60;;;8.82;;
8415;SDS011;4245;42.120;24.732;2023-07-22T09:17:36;10.65;;;8.93;;
8415;SDS011;4245;42.120;24.732;2023-07-22T09:20:03;13.93;;;8.38;;
8415;SDS011;4245;42.120;24.732;2023-07-22T09:22:31;13.30;;;8.40;;
8415;SDS011;4245;42.120;24.732;2023-07-22T09:25:13;10.35;;;7.95;;
8415;SDS011;4245;42.120;24.732;2023-07-22T09:27:41;12.27;;;8.52;;
8415;SDS011;4245;42.120;24.732;2023-07-22T09:30:19;14.07;;;8.90;;
8415;SDS011;4245;42.120;24.732;2023-07-22T09:32:47;11.52;;;8.30;;
8415;SDS011;4245;42.120;24.732;2023-07-22T09:35:14;14.07;;;8.95;;
8415;SDS011;4245;42.120;24.732;2023-07-22T09:37:41;16.63;;;14.88;;
8415;SDS011;4245;42.120;24.732;2023-07-22T09:40:16;13.82;;;8.88;;
8415;SDS011;4245;42.120;24.732;2023-07-22T09:42:45;11.68;;;8.73;;
8415;SDS011;4245;42.120;24.732;2023-07-22T09:45:13;10.52;;;8.68;;
8415;SDS011;4245;42.120;24.732;2023-07-22T09:47:40;14.68;;;8.80;;
8415;SDS011;4245;42.120;24.732;2023-07-22T09:50:10;13.07;;;8.77;;
8415;SDS011;4245;42.120;24.732;2023-07-22T09:52:40;10.82;;;8.40;;
8415;SDS011;4245;42.120;24.732;2023-07-22T09:55:09;11.93;;;7.72;;
8415;SDS011;4245;42.120;24.732;2023-07-22T09:57:38;12.75;;;8.40;;
8415;SDS011;4245;42.120;24.732;2023-07-22T10:00:10;9.90;;;8.27;;
8415;SDS011;4245;42.120;24.732;2023-07-22T10:02:39;12.75;;;8.23;;
8415;SDS011;4245;42.120;24.732;2023-07-22T10:05:08;13.23;;;8.35;;
8415;SDS011;4245;42.120;24.732;2023-07-22T10:07:41;10.88;;;8.75;;
8415;SDS011;4245;42.120;24.732;2023-07-22T10:10:10;11.02;;;9.05;;
8415;SDS011;4245;42.120;24.732;2023-07-22T10:12:39;13.00;;;8.43;;
8415;SDS011;4245;42.120;24.732;2023-07-22T10:15:08;12.93;;;8.57;;
8415;SDS011;4245;42.120;24.732;2023-07-22T10:17:36;16.30;;;8.63;;
8415;SDS011;4245;42.120;24.732;2023-07-22T10:20:03;13.48;;;8.88;;
8415;SDS011;4245;42.120;24.732;2023-07-22T10:22:33;13.02;;;8.70;;
8415;SDS011;4245;42.120;24.732;2023-07-22T10:25:01;14.23;;;8.48;;
8415;SDS011;4245;42.120;24.732;2023-07-22T10:27:31;10.77;;;8.00;;
8415;SDS011;4245;42.120;24.732;2023-07-22T10:29:59;20.00;;;8.60;;
8415;SDS011;4245;42.120;24.732;2023-07-22T10:32:31;14.43;;;8.80;;
8415;SDS011;4245;42.120;24.732;2023-07-22T10:34:58;14.57;;;8.65;;
8415;SDS011;4245;42.120;24.732;2023-07-22T10:37:29;19.52;;;8.70;;
8415;SDS011;4245;42.120;24.732;2023-07-22T10:39:58;16.25;;;8.65;;
8415;SDS011;4245;42.120;24.732;2023-07-22T10:42:26;15.38;;;9.02;;
8415;SDS011;4245;42.120;24.732;2023-07-22T10:44:52;15.60;;;8.95;;
8415;SDS011;4245;42.120;24.732;2023-07-22T10:47:32;20.05;;;9.93;;
8415;SDS011;4245;42.120;24.732;2023-07-22T10:50:05;13.07;;;9.40;;
8415;SDS011;4245;42.120;24.732;2023-07-22T10:52:40;17.02;;;8.85;;
8415;SDS011;4245;42.120;24.732;2023-07-22T10:55:17;13.90;;;7.80;;
8415;SDS011;4245;42.120;24.732;2023-07-22T10:57:48;15.25;;;8.30;;
8415;SDS011;4245;42.120;24.732;2023-07-22T11:00:19;13.07;;;8.10;;
8415;SDS011;4245;42.120;24.732;2023-07-22T11:02:48;15.35;;;8.63;;
8415;SDS011;4245;42.120;24.732;2023-07-22T11:05:48;13.65;;;8.10;;
8415;SDS011;4245;42.120;24.732;2023-07-22T11:08:16;10.98;;;8.32;;
8415;SDS011;4245;42.120;24.732;2023-07-22T11:10:52;12.70;;;7.70;;
8415;SDS011;4245;42.120;24.732;2023-07-22T11:13:26;10.68;;;8.30;;
8415;SDS011;4245;42.120;24.732;2023-07-22T11:15:55;12.88;;;8.05;;
8415;SDS011;4245;42.120;24.732;2023-07-22T11:18:36;10.35;;;7.95;;
8415;SDS011;4245;42.120;24.732;2023-07-22T11:21:07;13.55;;;8.38;;
8415;SDS011;4245;42.120;24.732;2023-07-22T11:23:34;9.38;;;7.75;;
8415;SDS011;4245;42.120;24.732;2023-07-22T11:26:01;13.38;;;8.63;;
8415;SDS011;4245;42.120;24.732;2023-07-22T11:28:29;16.50;;;8.52;;
8415;SDS011;4245;42.120;24.732;2023-07-22T11:30:56;10.82;;;7.68;;
8415;SDS011;4245;42.120;24.732;2023-07-22T11:33:24;15.50;;;7.80;;
8415;SDS011;4245;42.120;24.732;2023-07-22T11:35:52;11.75;;;7.72;;
8415;SDS011;4245;42.120;24.732;2023-07-22T11:38:18;13.10;;;7.78;;
8415;SDS011;4245;42.120;24.732;2023-07-22T11:40:45;13.52;;;8.35;;
8415;SDS011;4245;42.120;24.732;2023-07-22T11:43:13;12.73;;;7.13;;
8415;SDS011;4245;42.120;24.732;2023-07-22T11:45:40;12.80;;;8.10;;
8415;SDS011;4245;42.120;24.732;2023-07-22T11:48:10;15.82;;;8.43;;
8415;SDS011;4245;42.120;24.732;2023-07-22T11:50:38;13.93;;;8.18;;
8415;SDS011;4245;42.120;24.732;2023-07-22T11:53:06;18.52;;;7.78;;
8415;SDS011;4245;42.120;24.732;2023-07-22T11:55:34;13.52;;;7.72;;
8415;SDS011;4245;42.120;24.732;2023-07-22T11:58:02;16.52;;;8.10;;
8415;SDS011;4245;42.120;24.732;2023-07-22T12:00:29;12.25;;;8.05;;
8415;SDS011;4245;42.120;24.732;2023-07-22T12:02:56;17.15;;;7.80;;
8415;SDS011;4245;42.120;24.732;2023-07-22T12:05:24;20.92;;;7.68;;
8415;SDS011;4245;42.120;24.732;2023-07-22T12:07:50;15.23;;;7.50;;
8415;SDS011;4245;42.120;24.732;2023-07-22T12:10:19;19.05;;;8.25;;
8415;SDS011;4245;42.120;24.732;2023-07-22T12:12:46;17.50;;;7.95;;
8415;SDS011;4245;42.120;24.732;2023-07-22T12:15:14;18.33;;;8.05;;
8415;SDS011;4245;42.120;24.732;2023-07-22T12:17:43;12.88;;;7.47;;
8415;SDS011;4245;42.120;24.732;2023-07-22T12:20:13;12.93;;;7.68;;
8415;SDS011;4245;42.120;24.732;2023-07-22T12:22:41;18.85;;;7.82;;
8415;SDS011;4245;42.120;24.732;2023-07-22T12:25:07;16.48;;;7.90;;
8415;SDS011;4245;42.120;24.732;2023-07-22T12:27:36;16.83;;;7.55;;
8415;SDS011;4245;42.120;24.732;2023-07-22T12:30:04;16.85;;;7.70;;
8415;SDS011;4245;42.120;24.732;2023-07-22T12:32:32;21.95;;;7.57;;
8415;SDS011;4245;42.120;24.732;2023-07-22T12:34:59;15.35;;;6.72;;
8415;SDS011;4245;42.120;24.732;2023-07-22T12:37:26;14.77;;;7.50;;
8415;SDS011;4245;42.120;24.732;2023-07-22T12:39:53;17.80;;;7.30;;
8415;SDS011;4245;42.120;24.732;2023-07-22T12:42:20;15.88;;;6.82;;
8415;SDS011;4245;42.120;24.732;2023-07-22T12:44:49;19.75;;;6.78;;
8415;SDS011;4245;42.120;24.732;2023-07-22T12:47:16;13.63;;;7.15;;
8415;SDS011;4245;42.120;24.732;2023-07-22T12:49:43;19.02;;;7.20;;
8415;SDS011;4245;42.120;24.732;2023-07-22T12:52:10;16.15;;;7.00;;
8415;SDS011;4245;42.120;24.732;2023-07-22T12:54:37;13.07;;;7.70;;
8415;SDS011;4245;42.120;24.732;2023-07-22T12:57:04;14.63;;;6.88;;
8415;SDS011;4245;42.120;24.732;2023-07-22T12:59:31;19.30;;;7.65;;
8415;SDS011;4245;42.120;24.732;2023-07-22T13:01:59;18.17;;;7.32;;
8415;SDS011;4245;42.120;24.732;2023-07-22T13:04:26;15.75;;;7.32;;
8415;SDS011;4245;42.120;24.732;2023-07-22T13:06:53;18.63;;;7.63;;
8415;SDS011;4245;42.120;24.732;2023-07-22T13:09:20;14.40;;;7.53;;
8415;SDS011;4245;42.120;24.732;2023-07-22T13:11:46;22.05;;;7.70;;
8415;SDS011;4245;42.120;24.732;2023-07-22T13:14:13;17.65;;;7.47;;
8415;SDS011;4245;42.120;24.732;2023-07-22T13:16:43;16.90;;;7.82;;
8415;SDS011;4245;42.120;24.732;2023-07-22T13:19:11;12.98;;;8.23;;
8415;SDS011;4245;42.120;24.732;2023-07-22T13:21:38;16.42;;;7.75;;
8415;SDS011;4245;42.120;24.732;2023-07-22T13:24:06;14.27;;;7.65;;
8415;SDS011;4245;42.120;24.732;2023-07-22T13:26:33;12.63;;;7.10;;
8415;SDS011;4245;42.120;24.732;2023-07-22T13:29:00;15.20;;;7.95;;
8415;SDS011;4245;42.120;24.732;2023-07-22T13:31:27;17.05;;;8.20;;
8415;SDS011;4245;42.120;24.732;2023-07-22T13:33:53;18.55;;;7.97;;
8415;SDS011;4245;42.120;24.732;2023-07-22T13:36:22;15.90;;;7.68;;
8415;SDS011;4245;42.120;24.732;2023-07-22T13:38:48;17.95;;;8.13;;
8415;SDS011;4245;42.120;24.732;2023-07-22T13:41:15;13.13;;;7.25;;
8415;SDS011;4245;42.120;24.732;2023-07-22T13:43:42;13.68;;;7.35;;
8415;SDS011;4245;42.120;24.732;2023-07-22T13:46:08;16.63;;;7.70;;
8415;SDS011;4245;42.120;24.732;2023-07-22T13:48:35;19.50;;;7.63;;
8415;SDS011;4245;42.120;24.732;2023-07-22T13:51:02;21.38;;;8.70;;
8415;SDS011;4245;42.120;24.732;2023-07-22T13:53:30;15.70;;;8.05;;
8415;SDS011;4245;42.120;24.732;2023-07-22T13:55:57;18.65;;;7.47;;
8415;SDS011;4245;42.120;24.732;2023-07-22T13:58:24;16.23;;;7.68;;
8415;SDS011;4245;42.120;24.732;2023-07-22T14:00:50;15.95;;;7.55;;
8415;SDS011;4245;42.120;24.732;2023-07-22T14:03:17;13.70;;;7.68;;
8415;SDS011;4245;42.120;24.732;2023-07-22T14:05:44;20.35;;;7.95;;
8415;SDS011;4245;42.120;24.732;2023-07-22T14:08:11;19.42;;;7.68;;
8415;SDS011;4245;42.120;24.732;2023-07-22T14:10:39;18.05;;;7.60;;
8415;SDS011;4245;42.120;24.732;2023-07-22T14:13:06;16.83;;;7.82;;
8415;SDS011;4245;42.120;24.732;2023-07-22T14:15:33;19.98;;;8.02;;
8415;SDS011;4245;42.120;24.732;2023-07-22T14:18:01;19.27;;;7.30;;
8415;SDS011;4245;42.120;24.732;2023-07-22T14:20:28;22.92;;;7.97;;
8415;SDS011;4245;42.120;24.732;2023-07-22T14:22:57;21.42;;;7.43;;
8415;SDS011;4245;42.120;24.732;2023-07-22T14:25:23;15.98;;;7.65;;
8415;SDS011;4245;42.120;24.732;2023-07-22T14:27:51;20.25;;;7.72;;
8415;SDS011;4245;42.120;24.732;2023-07-22T14:30:18;20.58;;;7.68;;
8415;SDS011;4245;42.120;24.732;2023-07-22T14:32:45;17.15;;;7.35;;
8415;SDS011;4245;42.120;24.732;2023-07-22T14:35:12;22.08;;;7.55;;
8415;SDS011;4245;42.120;24.732;2023-07-22T14:37:39;20.73;;;7.55;;
8415;SDS011;4245;42.120;24.732;2023-07-22T14:40:07;19.65;;;7.65;;
8415;SDS011;4245;42.120;24.732;2023-07-22T14:42:34;14.60;;;7.32;;
8415;SDS011;4245;42.120;24.732;2023-07-22T14:45:03;22.77;;;8.50;;
8415;SDS011;4245;42.120;24.732;2023-07-22T14:47:31;17.85;;;7.85;;
8415;SDS011;4245;42.120;24.732;2023-07-22T14:49:58;23.05;;;7.15;;
8415;SDS011;4245;42.120;24.732;2023-07-22T14:52:25;18.48;;;7.20;;
8415;SDS011;4245;42.120;24.732;2023-07-22T14:54:51;24.77;;;7.05;;
8415;SDS011;4245;42.120;24.732;2023-07-22T14:57:18;18.50;;;6.88;;